createdAt,value
2022-12-17T00:00:04.632Z,24.97
2022-12-17T00:05:27.212Z,25.67
2022-12-17T00:10:48.058Z,24.90
2022-12-17T00:16:11.870Z,25.43
2022-12-17T00:21:34.235Z,25.50
2022-12-17T00:26:54.829Z,24.57
2022-12-17T00:32:16.770Z,24.70
2022-12-17T00:37:37.909Z,25.47
2022-12-17T00:42:58.731Z,23.83
2022-12-17T00:48:19.348Z,25.27
2022-12-17T00:53:41.846Z,25.83
2022-12-17T00:59:02.569Z,23.07
2022-12-17T01:04:23.766Z,24.83
2022-12-17T01:09:45.827Z,24.00
2022-12-17T01:15:06.545Z,25.70
2022-12-17T01:20:27.555Z,25.20
2022-12-17T01:25:49.886Z,23.47
2022-12-17T01:31:10.700Z,25.57
2022-12-17T01:36:49.418Z,24.87
2022-12-17T01:42:12.350Z,26.23
2022-12-17T01:47:32.722Z,24.93
2022-12-17T01:52:53.229Z,23.47
2022-12-17T01:58:15.010Z,25.07
2022-12-17T02:03:37.767Z,24.37
2022-12-17T02:09:09.278Z,22.87
2022-12-17T02:14:38.342Z,24.37
2022-12-17T02:20:11.460Z,23.73
2022-12-17T02:25:41.214Z,22.87
2022-12-17T02:31:03.386Z,23.57
2022-12-17T02:36:25.632Z,24.73
2022-12-17T02:41:48.378Z,23.67
2022-12-17T02:47:13.324Z,24.03
2022-12-17T02:52:38.785Z,23.43
2022-12-17T02:57:59.427Z,23.60
2022-12-17T03:03:21.552Z,24.47
2022-12-17T03:08:42.514Z,24.40
2022-12-17T03:14:03.416Z,23.67
2022-12-17T03:19:25.575Z,23.10
2022-12-17T03:24:46.749Z,23.87
2022-12-17T03:30:07.373Z,23.13
2022-12-17T03:35:29.391Z,23.83
2022-12-17T03:40:49.898Z,24.03
2022-12-17T03:46:11.776Z,22.80
2022-12-17T03:51:33.991Z,22.00
2022-12-17T03:56:54.495Z,21.80
2022-12-17T04:02:15.797Z,22.53
2022-12-17T04:07:37.736Z,22.90
2022-12-17T04:12:58.239Z,22.67
2022-12-17T04:18:18.929Z,22.87
2022-12-17T04:23:41.056Z,23.17
2022-12-17T04:29:01.614Z,23.33
2022-12-17T04:34:22.364Z,23.50
2022-12-17T04:39:44.405Z,24.07
2022-12-17T04:45:05.166Z,22.83
2022-12-17T04:50:26.094Z,24.13
2022-12-17T04:55:48.279Z,27.67
2022-12-17T05:01:10.651Z,27.00
2022-12-17T05:06:31.039Z,27.43
2022-12-17T05:11:53.401Z,24.73
2022-12-17T05:17:13.964Z,25.27
2022-12-17T05:22:34.504Z,23.27
2022-12-17T05:27:56.633Z,24.57
2022-12-17T05:33:18.223Z,23.30
2022-12-17T05:38:38.890Z,24.30
2022-12-17T05:44:00.611Z,23.50
2022-12-17T05:49:21.498Z,22.27
2022-12-17T05:54:42.319Z,23.40
2022-12-17T06:00:04.347Z,21.80
2022-12-17T06:05:25.771Z,21.47
2022-12-17T06:10:46.757Z,20.50
2022-12-17T06:16:09.716Z,20.10
2022-12-17T06:21:30.328Z,19.73
2022-12-17T06:26:51.143Z,20.07
2022-12-17T06:32:13.224Z,20.63
2022-12-17T06:37:33.815Z,19.73
2022-12-17T06:42:54.225Z,20.27
2022-12-17T06:48:21.675Z,20.20
2022-12-17T06:53:38.929Z,21.23
2022-12-17T06:59:14.323Z,19.47
2022-12-17T07:04:36.833Z,22.37
2022-12-17T07:09:57.324Z,22.10
2022-12-17T07:15:17.694Z,22.60
2022-12-17T07:20:39.546Z,21.87
2022-12-17T07:26:00.731Z,22.57
2022-12-17T07:31:21.245Z,22.13
2022-12-17T07:36:43.625Z,24.13
2022-12-17T07:42:04.139Z,23.80
2022-12-17T07:47:24.960Z,23.70
2022-12-17T07:53:01.863Z,25.37
2022-12-17T07:58:24.931Z,26.53
2022-12-17T08:03:46.513Z,25.07
2022-12-17T08:09:08.509Z,27.80
2022-12-17T08:14:29.266Z,25.60
2022-12-17T08:19:49.842Z,26.67
2022-12-17T08:25:12.535Z,25.50
2022-12-17T08:30:33.422Z,25.93
2022-12-17T08:35:53.950Z,30.13
2022-12-17T08:41:20.088Z,30.40
2022-12-17T08:46:41.422Z,29.70
2022-12-17T08:52:02.343Z,28.70
2022-12-17T08:57:31.903Z,27.40
2022-12-17T09:02:55.982Z,28.50
2022-12-17T09:08:22.804Z,28.00
2022-12-17T09:13:45.190Z,29.53
2022-12-17T09:19:08.797Z,27.40
2022-12-17T09:24:32.277Z,27.90
2022-12-17T09:29:55.312Z,28.03
2022-12-17T09:35:16.386Z,28.70
2022-12-17T09:40:47.355Z,26.07
2022-12-17T09:46:16.536Z,26.57
2022-12-17T09:51:42.186Z,27.33
2022-12-17T09:57:03.310Z,25.10
2022-12-17T10:02:31.792Z,27.33
2022-12-17T10:07:57.437Z,27.93
2022-12-17T10:13:20.159Z,27.90
2022-12-17T10:18:43.320Z,27.27
2022-12-17T10:24:05.756Z,28.23
2022-12-17T10:29:48.120Z,30.27
2022-12-17T10:35:29.103Z,29.60
2022-12-17T10:40:54.398Z,28.37
2022-12-17T10:46:16.588Z,28.90
2022-12-17T10:51:48.024Z,27.83
2022-12-17T10:57:21.681Z,26.27
2022-12-17T11:02:51.069Z,32.00
2022-12-17T11:08:32.762Z,31.67
2022-12-17T11:14:01.984Z,31.57
2022-12-17T11:19:48.022Z,32.57
2022-12-17T11:25:26.045Z,31.07
2022-12-17T11:31:02.330Z,30.10
2022-12-17T11:36:38.702Z,32.10
2022-12-17T11:42:18.566Z,32.03
2022-12-17T11:47:48.430Z,28.87
2022-12-17T11:53:26.010Z,32.97
2022-12-17T11:58:58.564Z,30.60
2022-12-17T12:04:35.700Z,32.20
2022-12-17T12:10:07.067Z,33.43
2022-12-17T12:15:46.828Z,28.53
2022-12-17T12:21:28.417Z,29.50
2022-12-17T12:27:07.425Z,28.20
2022-12-17T12:32:56.922Z,28.10
2022-12-17T12:38:25.240Z,27.47
2022-12-17T12:43:48.711Z,26.53
2022-12-17T12:49:28.692Z,27.20
2022-12-17T12:54:51.260Z,27.83
2022-12-17T13:05:40.485Z,28.37
2022-12-17T13:10:47.903Z,25.83
2022-12-17T13:15:58.541Z,26.23
2022-12-17T13:21:06.881Z,26.23
2022-12-17T13:26:25.411Z,24.73
2022-12-17T13:31:38.261Z,22.30
2022-12-17T13:36:54.407Z,23.07
2022-12-17T13:42:03.029Z,24.50
2022-12-17T13:47:08.379Z,26.03
2022-12-17T13:52:23.495Z,24.17
2022-12-17T13:57:27.977Z,26.23
2022-12-17T14:02:34.449Z,23.53
2022-12-17T14:07:41.953Z,22.63
2022-12-17T14:12:55.076Z,23.50
2022-12-17T14:18:04.010Z,24.43
2022-12-17T14:23:16.928Z,25.53
2022-12-17T14:28:26.411Z,26.40
2022-12-17T14:33:37.524Z,24.90
2022-12-17T14:38:56.464Z,25.83
2022-12-17T14:44:05.033Z,23.43
2022-12-17T14:49:20.387Z,23.27
2022-12-17T14:54:34.297Z,24.20
2022-12-17T14:59:44.335Z,24.50
2022-12-17T15:05:07.391Z,25.47
2022-12-17T15:10:22.652Z,24.23
2022-12-17T15:15:26.854Z,26.20
2022-12-17T15:20:36.630Z,25.93
2022-12-17T15:25:49.315Z,27.40
2022-12-17T15:30:57.567Z,28.10
2022-12-17T15:36:03.677Z,28.67
2022-12-17T15:41:30.733Z,30.63
2022-12-17T15:46:37.538Z,31.87
2022-12-17T15:51:41.801Z,30.50
2022-12-17T15:56:56.847Z,29.63
2022-12-17T16:02:01.276Z,31.43
2022-12-17T16:07:08.263Z,31.83
2022-12-17T16:12:16.598Z,32.67
2022-12-17T16:17:26.233Z,30.33
2022-12-17T16:22:34.180Z,31.93
2022-12-17T16:27:42.007Z,31.00
2022-12-17T16:32:47.764Z,32.13
2022-12-17T16:37:58.338Z,31.37
2022-12-17T16:43:12.046Z,31.87
2022-12-17T16:48:21.033Z,31.50
2022-12-17T16:53:32.607Z,32.40
2022-12-17T16:58:43.616Z,32.63
2022-12-17T17:03:50.114Z,32.73
2022-12-17T17:08:58.778Z,32.77
2022-12-17T17:14:14.546Z,36.80
2022-12-17T17:19:30.373Z,34.67
2022-12-17T17:24:36.370Z,35.03
2022-12-17T17:29:45.170Z,34.00
2022-12-17T17:34:53.331Z,37.10
2022-12-17T17:40:12.280Z,36.43
2022-12-17T17:45:23.808Z,33.70
2022-12-17T17:50:36.324Z,34.70
2022-12-17T17:55:45.636Z,37.93
2022-12-17T18:01:08.149Z,37.53
2022-12-17T18:06:16.783Z,35.87
2022-12-17T18:11:24.341Z,36.87
2022-12-17T18:16:35.123Z,36.27
2022-12-17T18:21:40.665Z,39.63
2022-12-17T18:26:57.279Z,40.73
2022-12-17T18:32:06.243Z,38.87
2022-12-17T18:37:11.437Z,30.83
2022-12-17T18:42:37.089Z,38.30
2022-12-17T18:47:45.131Z,37.77
2022-12-17T18:52:54.361Z,38.97
2022-12-17T18:57:58.989Z,37.57
2022-12-17T19:03:07.776Z,33.47
2022-12-17T19:08:16.501Z,34.83
2022-12-17T19:13:27.481Z,40.30
2022-12-17T19:18:33.499Z,39.50
2022-12-17T19:23:40.917Z,42.80
2022-12-17T19:28:48.089Z,37.97
2022-12-17T19:34:02.894Z,37.47
2022-12-17T19:39:14.469Z,33.73
2022-12-17T19:44:21.527Z,33.57
2022-12-17T19:49:35.834Z,37.47
2022-12-17T19:54:54.039Z,39.43
2022-12-17T20:00:00.415Z,37.20
2022-12-17T20:05:14.481Z,36.20
2022-12-17T20:10:21.038Z,30.03
2022-12-17T20:15:40.248Z,35.27
2022-12-17T20:20:53.192Z,38.77
2022-12-17T20:26:07.825Z,30.20
2022-12-17T20:31:21.203Z,34.40
2022-12-17T20:36:33.522Z,30.23
2022-12-17T20:41:49.154Z,32.10
2022-12-17T20:46:55.170Z,31.07
2022-12-17T20:52:01.459Z,33.77
2022-12-17T20:57:19.018Z,33.93
2022-12-17T21:02:25.550Z,34.03
2022-12-17T21:07:37.734Z,34.20
2022-12-17T21:12:58.849Z,33.73
2022-12-17T21:18:03.024Z,31.57
2022-12-17T21:23:13.840Z,28.77
2022-12-17T21:28:26.503Z,35.10
2022-12-17T21:33:32.322Z,30.43
2022-12-17T21:38:49.642Z,29.23
2022-12-17T21:43:58.737Z,36.30
2022-12-17T21:49:06.034Z,29.33
2022-12-17T21:54:20.261Z,33.87
2022-12-17T21:59:34.580Z,30.90
2022-12-17T22:04:39.880Z,28.57
2022-12-17T22:09:59.962Z,30.97
2022-12-17T22:15:13.417Z,30.43
2022-12-17T22:20:27.253Z,27.77
2022-12-17T22:25:40.949Z,28.37
2022-12-17T22:31:02.940Z,28.47
2022-12-17T22:38:22.066Z,27.60
2022-12-17T22:44:43.118Z,26.90
2022-12-17T22:47:24.403Z,28.03
2022-12-17T22:52:36.486Z,28.63
2022-12-17T22:57:47.372Z,28.37
2022-12-17T23:02:57.885Z,30.90
2022-12-17T23:08:05.115Z,30.97
2022-12-17T23:13:18.045Z,29.03
2022-12-17T23:18:36.417Z,30.63
2022-12-17T23:23:45.679Z,29.83
2022-12-17T23:29:06.990Z,29.37
2022-12-17T23:34:18.619Z,27.77
2022-12-17T23:39:25.782Z,28.53
2022-12-17T23:44:44.058Z,28.17
2022-12-17T23:50:02.733Z,27.87
2022-12-17T23:55:12.079Z,27.87
